sensor_id;sensor_type;location;lat;lon;timestamp;P1;durP1;ratioP1;P2;durP2;ratioP2
4766;SDS011;2397;53.576;9.746;2023-02-15T00:02:22;39.47;;;23.17;;
4766;SDS011;2397;53.576;9.746;2023-02-15T00:04:50;40.20;;;22.53;;
4766;SDS011;2397;53.576;9.746;2023-02-15T00:07:17;33.33;;;20.33;;
4766;SDS011;2397;53.576;9.746;2023-02-15T00:09:45;33.70;;;20.53;;
4766;SDS011;2397;53.576;9.746;2023-02-15T00:12:12;40.90;;;20.60;;
4766;SDS011;2397;53.576;9.746;2023-02-15T00:14:38;37.17;;;21.63;;
4766;SDS011;2397;53.576;9.746;2023-02-15T00:17:04;33.67;;;19.53;;
4766;SDS011;2397;53.576;9.746;2023-02-15T00:19:31;36.87;;;20.03;;
4766;SDS011;2397;53.576;9.746;2023-02-15T00:21:57;31.20;;;20.40;;
4766;SDS011;2397;53.576;9.746;2023-02-15T00:24:24;44.70;;;21.27;;
4766;SDS011;2397;53.576;9.746;2023-02-15T00:26:50;52.97;;;21.90;;
4766;SDS011;2397;53.576;9.746;2023-02-15T00:29:17;54.23;;;22.00;;
4766;SDS011;2397;53.576;9.746;2023-02-15T00:31:45;48.93;;;21.80;;
4766;SDS011;2397;53.576;9.746;2023-02-15T00:34:13;116.90;;;24.50;;
4766;SDS011;2397;53.576;9.746;2023-02-15T00:36:41;51.17;;;21.33;;
4766;SDS011;2397;53.576;9.746;2023-02-15T00:39:09;37.87;;;20.60;;
4766;SDS011;2397;53.576;9.746;2023-02-15T00:41:36;44.93;;;22.63;;
4766;SDS011;2397;53.576;9.746;2023-02-15T00:44:03;38.83;;;19.80;;
4766;SDS011;2397;53.576;9.746;2023-02-15T00:46:30;38.00;;;20.60;;
4766;SDS011;2397;53.576;9.746;2023-02-15T00:48:58;36.07;;;18.50;;
4766;SDS011;2397;53.576;9.746;2023-02-15T00:51:24;37.40;;;21.43;;
4766;SDS011;2397;53.576;9.746;2023-02-15T00:53:51;43.17;;;21.20;;
4766;SDS011;2397;53.576;9.746;2023-02-15T00:56:18;35.80;;;19.97;;
4766;SDS011;2397;53.576;9.746;2023-02-15T00:58:44;36.33;;;19.53;;
4766;SDS011;2397;53.576;9.746;2023-02-15T01:01:16;42.57;;;20.67;;
4766;SDS011;2397;53.576;9.746;2023-02-15T01:03:44;36.37;;;20.13;;
4766;SDS011;2397;53.576;9.746;2023-02-15T01:06:13;37.63;;;21.90;;
4766;SDS011;2397;53.576;9.746;2023-02-15T01:08:41;85.80;;;22.50;;
4766;SDS011;2397;53.576;9.746;2023-02-15T01:11:09;74.80;;;22.60;;
4766;SDS011;2397;53.576;9.746;2023-02-15T01:13:37;44.83;;;22.03;;
4766;SDS011;2397;53.576;9.746;2023-02-15T01:16:04;53.07;;;20.83;;
4766;SDS011;2397;53.576;9.746;2023-02-15T01:18:31;40.20;;;23.90;;
4766;SDS011;2397;53.576;9.746;2023-02-15T01:20:58;57.90;;;25.50;;
4766;SDS011;2397;53.576;9.746;2023-02-15T01:23:25;38.87;;;22.07;;
4766;SDS011;2397;53.576;9.746;2023-02-15T01:25:52;78.53;;;23.27;;
4766;SDS011;2397;53.576;9.746;2023-02-15T01:28:18;48.20;;;24.10;;
4766;SDS011;2397;53.576;9.746;2023-02-15T01:30:45;42.53;;;22.30;;
4766;SDS011;2397;53.576;9.746;2023-02-15T01:33:11;48.07;;;21.70;;
4766;SDS011;2397;53.576;9.746;2023-02-15T01:35:44;68.97;;;22.47;;
4766;SDS011;2397;53.576;9.746;2023-02-15T01:38:12;91.07;;;23.17;;
4766;SDS011;2397;53.576;9.746;2023-02-15T01:40:39;58.43;;;22.30;;
4766;SDS011;2397;53.576;9.746;2023-02-15T01:43:10;53.27;;;21.60;;
4766;SDS011;2397;53.576;9.746;2023-02-15T01:45:37;42.30;;;21.80;;
4766;SDS011;2397;53.576;9.746;2023-02-15T01:48:06;130.93;;;22.87;;
4766;SDS011;2397;53.576;9.746;2023-02-15T01:50:44;97.17;;;21.60;;
4766;SDS011;2397;53.576;9.746;2023-02-15T01:53:21;74.00;;;21.30;;
4766;SDS011;2397;53.576;9.746;2023-02-15T01:55:55;47.20;;;20.57;;
4766;SDS011;2397;53.576;9.746;2023-02-15T01:58:26;131.07;;;22.13;;
4766;SDS011;2397;53.576;9.746;2023-02-15T02:00:55;103.83;;;22.30;;
4766;SDS011;2397;53.576;9.746;2023-02-15T02:03:36;56.80;;;21.20;;
4766;SDS011;2397;53.576;9.746;2023-02-15T02:06:09;73.17;;;22.83;;
4766;SDS011;2397;53.576;9.746;2023-02-15T02:08:36;46.60;;;22.17;;
4766;SDS011;2397;53.576;9.746;2023-02-15T02:11:11;54.77;;;21.90;;
4766;SDS011;2397;53.576;9.746;2023-02-15T02:13:42;88.40;;;23.93;;
4766;SDS011;2397;53.576;9.746;2023-02-15T02:27:01;84.60;;;23.57;;
4766;SDS011;2397;53.576;9.746;2023-02-15T02:35:30;67.70;;;21.57;;
4766;SDS011;2397;53.576;9.746;2023-02-15T02:38:20;73.60;;;23.20;;
4766;SDS011;2397;53.576;9.746;2023-02-15T02:41:05;47.47;;;23.00;;
4766;SDS011;2397;53.576;9.746;2023-02-15T02:43:46;138.10;;;26.23;;
4766;SDS011;2397;53.576;9.746;2023-02-15T02:46:22;63.87;;;24.20;;
4766;SDS011;2397;53.576;9.746;2023-02-15T02:48:54;86.07;;;23.07;;
4766;SDS011;2397;53.576;9.746;2023-02-15T02:51:21;71.73;;;24.23;;
4766;SDS011;2397;53.576;9.746;2023-02-15T02:53:51;102.20;;;25.47;;
4766;SDS011;2397;53.576;9.746;2023-02-15T02:56:34;123.67;;;24.77;;
4766;SDS011;2397;53.576;9.746;2023-02-15T02:59:07;70.00;;;23.57;;
4766;SDS011;2397;53.576;9.746;2023-02-15T03:01:43;66.47;;;23.57;;
4766;SDS011;2397;53.576;9.746;2023-02-15T03:04:15;150.03;;;25.37;;
4766;SDS011;2397;53.576;9.746;2023-02-15T03:06:49;88.43;;;23.57;;
4766;SDS011;2397;53.576;9.746;2023-02-15T03:12:01;118.90;;;23.00;;
4766;SDS011;2397;53.576;9.746;2023-02-15T03:14:30;87.67;;;25.97;;
4766;SDS011;2397;53.576;9.746;2023-02-15T03:16:57;134.37;;;24.93;;
4766;SDS011;2397;53.576;9.746;2023-02-15T03:19:28;113.00;;;23.80;;
4766;SDS011;2397;53.576;9.746;2023-02-15T03:21:58;167.77;;;24.57;;
4766;SDS011;2397;53.576;9.746;2023-02-15T03:24:42;165.13;;;25.87;;
4766;SDS011;2397;53.576;9.746;2023-02-15T03:27:15;137.83;;;24.70;;
4766;SDS011;2397;53.576;9.746;2023-02-15T03:29:46;127.70;;;25.50;;
4766;SDS011;2397;53.576;9.746;2023-02-15T03:32:16;106.40;;;23.47;;
4766;SDS011;2397;53.576;9.746;2023-02-15T03:34:43;136.60;;;21.77;;
4766;SDS011;2397;53.576;9.746;2023-02-15T03:37:12;99.93;;;23.40;;
4766;SDS011;2397;53.576;9.746;2023-02-15T03:39:47;165.33;;;26.40;;
4766;SDS011;2397;53.576;9.746;2023-02-15T03:42:25;112.80;;;21.57;;
4766;SDS011;2397;53.576;9.746;2023-02-15T03:44:59;114.27;;;24.00;;
4766;SDS011;2397;53.576;9.746;2023-02-15T03:47:34;130.80;;;23.83;;
4766;SDS011;2397;53.576;9.746;2023-02-15T03:52:59;121.83;;;22.80;;
4766;SDS011;2397;53.576;9.746;2023-02-15T03:55:29;51.90;;;21.90;;
4766;SDS011;2397;53.576;9.746;2023-02-15T03:57:55;75.13;;;21.80;;
4766;SDS011;2397;53.576;9.746;2023-02-15T04:00:43;84.03;;;23.00;;
4766;SDS011;2397;53.576;9.746;2023-02-15T04:03:57;58.50;;;23.47;;
4766;SDS011;2397;53.576;9.746;2023-02-15T04:06:25;102.10;;;24.17;;
4766;SDS011;2397;53.576;9.746;2023-02-15T04:08:51;73.73;;;20.00;;
4766;SDS011;2397;53.576;9.746;2023-02-15T04:11:36;90.03;;;22.13;;
4766;SDS011;2397;53.576;9.746;2023-02-15T04:14:03;42.17;;;20.80;;
4766;SDS011;2397;53.576;9.746;2023-02-15T04:16:49;42.00;;;21.67;;
4766;SDS011;2397;53.576;9.746;2023-02-15T04:19:16;51.30;;;22.40;;
4766;SDS011;2397;53.576;9.746;2023-02-15T04:22:01;76.93;;;23.40;;
4766;SDS011;2397;53.576;9.746;2023-02-15T04:24:46;62.87;;;22.77;;
4766;SDS011;2397;53.576;9.746;2023-02-15T04:27:31;98.47;;;25.90;;
4766;SDS011;2397;53.576;9.746;2023-02-15T04:29:57;49.03;;;22.83;;
4766;SDS011;2397;53.576;9.746;2023-02-15T04:32:24;136.73;;;24.13;;
4766;SDS011;2397;53.576;9.746;2023-02-15T04:34:50;95.47;;;25.87;;
4766;SDS011;2397;53.576;9.746;2023-02-15T04:37:16;64.20;;;22.20;;
4766;SDS011;2397;53.576;9.746;2023-02-15T04:39:43;86.73;;;22.73;;
4766;SDS011;2397;53.576;9.746;2023-02-15T04:42:09;80.97;;;22.53;;
4766;SDS011;2397;53.576;9.746;2023-02-15T04:44:35;80.47;;;22.80;;
4766;SDS011;2397;53.576;9.746;2023-02-15T04:47:02;85.17;;;23.10;;
4766;SDS011;2397;53.576;9.746;2023-02-15T04:49:28;83.70;;;21.70;;
4766;SDS011;2397;53.576;9.746;2023-02-15T04:51:55;87.80;;;22.53;;
4766;SDS011;2397;53.576;9.746;2023-02-15T04:54:21;63.90;;;22.37;;
4766;SDS011;2397;53.576;9.746;2023-02-15T04:56:48;78.83;;;20.87;;
4766;SDS011;2397;53.576;9.746;2023-02-15T04:59:14;139.10;;;23.53;;
4766;SDS011;2397;53.576;9.746;2023-02-15T05:01:41;153.73;;;22.73;;
4766;SDS011;2397;53.576;9.746;2023-02-15T05:04:07;41.87;;;20.40;;
4766;SDS011;2397;53.576;9.746;2023-02-15T05:06:34;64.60;;;21.47;;
4766;SDS011;2397;53.576;9.746;2023-02-15T05:09:01;138.90;;;21.43;;
4766;SDS011;2397;53.576;9.746;2023-02-15T05:11:28;88.70;;;19.87;;
4766;SDS011;2397;53.576;9.746;2023-02-15T05:13:54;103.27;;;21.53;;
4766;SDS011;2397;53.576;9.746;2023-02-15T05:16:21;126.50;;;22.43;;
4766;SDS011;2397;53.576;9.746;2023-02-15T05:18:47;168.67;;;25.70;;
4766;SDS011;2397;53.576;9.746;2023-02-15T05:21:14;68.07;;;19.10;;
4766;SDS011;2397;53.576;9.746;2023-02-15T05:23:42;109.23;;;20.43;;
4766;SDS011;2397;53.576;9.746;2023-02-15T05:26:12;39.73;;;16.63;;
4766;SDS011;2397;53.576;9.746;2023-02-15T05:29:00;135.30;;;20.30;;
4766;SDS011;2397;53.576;9.746;2023-02-15T05:31:27;135.43;;;18.97;;
4766;SDS011;2397;53.576;9.746;2023-02-15T05:33:54;101.57;;;19.00;;
4766;SDS011;2397;53.576;9.746;2023-02-15T05:36:20;126.90;;;19.10;;
4766;SDS011;2397;53.576;9.746;2023-02-15T05:38:47;63.80;;;17.40;;
4766;SDS011;2397;53.576;9.746;2023-02-15T05:41:13;62.50;;;18.37;;
4766;SDS011;2397;53.576;9.746;2023-02-15T05:43:40;41.93;;;16.80;;
4766;SDS011;2397;53.576;9.746;2023-02-15T05:46:07;73.17;;;17.90;;
4766;SDS011;2397;53.576;9.746;2023-02-15T05:48:34;45.77;;;15.30;;
4766;SDS011;2397;53.576;9.746;2023-02-15T05:51:10;95.30;;;17.00;;
4766;SDS011;2397;53.576;9.746;2023-02-15T05:53:43;47.33;;;17.67;;
4766;SDS011;2397;53.576;9.746;2023-02-15T05:56:09;141.17;;;19.70;;
4766;SDS011;2397;53.576;9.746;2023-02-15T05:58:38;152.37;;;20.87;;
4766;SDS011;2397;53.576;9.746;2023-02-15T06:03:37;115.27;;;18.43;;
4766;SDS011;2397;53.576;9.746;2023-02-15T06:06:04;110.13;;;20.70;;
4766;SDS011;2397;53.576;9.746;2023-02-15T06:08:31;84.20;;;17.43;;
4766;SDS011;2397;53.576;9.746;2023-02-15T06:10:58;59.60;;;17.60;;
4766;SDS011;2397;53.576;9.746;2023-02-15T06:13:25;144.13;;;19.13;;
4766;SDS011;2397;53.576;9.746;2023-02-15T06:15:51;36.80;;;16.27;;
4766;SDS011;2397;53.576;9.746;2023-02-15T06:18:18;94.70;;;18.70;;
4766;SDS011;2397;53.576;9.746;2023-02-15T06:20:47;87.03;;;18.10;;
4766;SDS011;2397;53.576;9.746;2023-02-15T06:23:15;93.20;;;20.30;;
4766;SDS011;2397;53.576;9.746;2023-02-15T06:25:42;49.07;;;18.10;;
4766;SDS011;2397;53.576;9.746;2023-02-15T06:28:10;49.80;;;16.60;;
4766;SDS011;2397;53.576;9.746;2023-02-15T06:30:36;164.70;;;18.10;;
4766;SDS011;2397;53.576;9.746;2023-02-15T06:33:03;41.60;;;16.90;;
4766;SDS011;2397;53.576;9.746;2023-02-15T06:35:29;96.87;;;18.17;;
4766;SDS011;2397;53.576;9.746;2023-02-15T06:37:56;56.40;;;15.77;;
4766;SDS011;2397;53.576;9.746;2023-02-15T06:40:22;109.83;;;18.50;;
4766;SDS011;2397;53.576;9.746;2023-02-15T06:42:49;133.73;;;17.10;;
4766;SDS011;2397;53.576;9.746;2023-02-15T06:45:15;128.90;;;18.00;;
4766;SDS011;2397;53.576;9.746;2023-02-15T06:47:41;47.43;;;16.57;;
4766;SDS011;2397;53.576;9.746;2023-02-15T06:50:08;89.40;;;17.50;;
4766;SDS011;2397;53.576;9.746;2023-02-15T06:52:35;52.97;;;17.33;;
4766;SDS011;2397;53.576;9.746;2023-02-15T06:55:01;144.27;;;18.00;;
4766;SDS011;2397;53.576;9.746;2023-02-15T06:57:28;63.93;;;15.40;;
4766;SDS011;2397;53.576;9.746;2023-02-15T06:59:55;64.47;;;16.40;;
4766;SDS011;2397;53.576;9.746;2023-02-15T07:02:21;65.17;;;16.90;;
4766;SDS011;2397;53.576;9.746;2023-02-15T07:04:47;143.77;;;18.33;;
4766;SDS011;2397;53.576;9.746;2023-02-15T07:07:14;112.60;;;16.63;;
4766;SDS011;2397;53.576;9.746;2023-02-15T07:09:40;98.87;;;16.93;;
4766;SDS011;2397;53.576;9.746;2023-02-15T07:12:07;77.37;;;16.00;;
4766;SDS011;2397;53.576;9.746;2023-02-15T07:14:52;83.53;;;15.47;;
4766;SDS011;2397;53.576;9.746;2023-02-15T07:17:18;115.60;;;17.37;;
4766;SDS011;2397;53.576;9.746;2023-02-15T07:20:03;71.40;;;16.80;;
4766;SDS011;2397;53.576;9.746;2023-02-15T07:22:31;68.10;;;16.43;;
4766;SDS011;2397;53.576;9.746;2023-02-15T07:25:00;75.87;;;16.37;;
4766;SDS011;2397;53.576;9.746;2023-02-15T07:27:26;89.90;;;17.17;;
4766;SDS011;2397;53.576;9.746;2023-02-15T07:29:52;48.10;;;17.10;;
4766;SDS011;2397;53.576;9.746;2023-02-15T07:32:19;88.13;;;17.77;;
4766;SDS011;2397;53.576;9.746;2023-02-15T07:34:45;155.50;;;17.73;;
4766;SDS011;2397;53.576;9.746;2023-02-15T07:37:12;70.33;;;15.70;;
4766;SDS011;2397;53.576;9.746;2023-02-15T07:39:38;74.60;;;17.30;;
4766;SDS011;2397;53.576;9.746;2023-02-15T07:42:04;58.40;;;16.70;;
4766;SDS011;2397;53.576;9.746;2023-02-15T07:44:31;105.53;;;18.57;;
4766;SDS011;2397;53.576;9.746;2023-02-15T07:46:57;81.47;;;16.17;;
4766;SDS011;2397;53.576;9.746;2023-02-15T07:49:23;138.80;;;17.90;;
4766;SDS011;2397;53.576;9.746;2023-02-15T07:51:50;84.57;;;17.97;;
4766;SDS011;2397;53.576;9.746;2023-02-15T07:54:16;70.60;;;16.70;;
4766;SDS011;2397;53.576;9.746;2023-02-15T07:56:43;72.80;;;16.43;;
4766;SDS011;2397;53.576;9.746;2023-02-15T07:59:09;41.63;;;16.20;;
4766;SDS011;2397;53.576;9.746;2023-02-15T08:01:36;58.50;;;17.00;;
4766;SDS011;2397;53.576;9.746;2023-02-15T08:04:04;50.60;;;16.20;;
4766;SDS011;2397;53.576;9.746;2023-02-15T08:06:35;59.20;;;15.10;;
4766;SDS011;2397;53.576;9.746;2023-02-15T08:09:05;52.43;;;15.80;;
4766;SDS011;2397;53.576;9.746;2023-02-15T08:11:34;60.70;;;16.83;;
4766;SDS011;2397;53.576;9.746;2023-02-15T08:16:37;97.70;;;17.17;;
4766;SDS011;2397;53.576;9.746;2023-02-15T08:19:13;70.10;;;16.67;;
4766;SDS011;2397;53.576;9.746;2023-02-15T08:21:48;47.13;;;15.87;;
4766;SDS011;2397;53.576;9.746;2023-02-15T08:24:17;49.80;;;15.47;;
4766;SDS011;2397;53.576;9.746;2023-02-15T08:26:47;27.50;;;15.47;;
4766;SDS011;2397;53.576;9.746;2023-02-15T08:29:14;106.27;;;18.00;;
4766;SDS011;2397;53.576;9.746;2023-02-15T08:31:42;136.10;;;18.27;;
4766;SDS011;2397;53.576;9.746;2023-02-15T08:34:09;58.00;;;16.90;;
4766;SDS011;2397;53.576;9.746;2023-02-15T08:36:37;114.53;;;18.90;;
4766;SDS011;2397;53.576;9.746;2023-02-15T08:39:05;45.47;;;15.43;;
4766;SDS011;2397;53.576;9.746;2023-02-15T08:41:35;46.13;;;16.73;;
4766;SDS011;2397;53.576;9.746;2023-02-15T08:44:04;76.90;;;16.13;;
4766;SDS011;2397;53.576;9.746;2023-02-15T08:46:33;76.30;;;16.20;;
4766;SDS011;2397;53.576;9.746;2023-02-15T08:49:01;44.13;;;16.80;;
4766;SDS011;2397;53.576;9.746;2023-02-15T08:51:30;78.03;;;17.40;;
4766;SDS011;2397;53.576;9.746;2023-02-15T08:54:00;43.73;;;17.70;;
4766;SDS011;2397;53.576;9.746;2023-02-15T08:56:32;81.70;;;18.00;;
4766;SDS011;2397;53.576;9.746;2023-02-15T08:59:00;88.33;;;18.77;;
4766;SDS011;2397;53.576;9.746;2023-02-15T09:01:28;85.07;;;18.13;;
4766;SDS011;2397;53.576;9.746;2023-02-15T09:03:57;36.90;;;16.87;;
4766;SDS011;2397;53.576;9.746;2023-02-15T09:06:26;54.47;;;17.50;;
4766;SDS011;2397;53.576;9.746;2023-02-15T09:08:53;36.60;;;18.00;;
4766;SDS011;2397;53.576;9.746;2023-02-15T09:11:27;57.67;;;19.90;;
4766;SDS011;2397;53.576;9.746;2023-02-15T09:13:56;35.90;;;18.77;;
4766;SDS011;2397;53.576;9.746;2023-02-15T09:16:26;48.20;;;18.70;;
4766;SDS011;2397;53.576;9.746;2023-02-15T09:18:54;37.03;;;17.97;;
4766;SDS011;2397;53.576;9.746;2023-02-15T09:21:24;37.93;;;17.10;;
4766;SDS011;2397;53.576;9.746;2023-02-15T09:23:54;40.53;;;17.50;;
4766;SDS011;2397;53.576;9.746;2023-02-15T09:26:23;32.33;;;18.03;;
4766;SDS011;2397;53.576;9.746;2023-02-15T09:28:54;45.27;;;18.57;;
4766;SDS011;2397;53.576;9.746;2023-02-15T09:31:19;35.07;;;18.47;;
4766;SDS011;2397;53.576;9.746;2023-02-15T09:33:47;32.07;;;18.40;;
4766;SDS011;2397;53.576;9.746;2023-02-15T09:36:19;34.43;;;16.90;;
4766;SDS011;2397;53.576;9.746;2023-02-15T09:38:56;41.20;;;17.07;;
4766;SDS011;2397;53.576;9.746;2023-02-15T09:52:56;49.43;;;19.83;;
4766;SDS011;2397;53.576;9.746;2023-02-15T09:55:27;34.10;;;17.97;;
4766;SDS011;2397;53.576;9.746;2023-02-15T10:00:42;46.13;;;19.30;;
4766;SDS011;2397;53.576;9.746;2023-02-15T10:09:00;27.90;;;17.37;;
4766;SDS011;2397;53.576;9.746;2023-02-15T10:11:54;69.90;;;18.50;;
4766;SDS011;2397;53.576;9.746;2023-02-15T10:17:24;35.83;;;19.00;;
4766;SDS011;2397;53.576;9.746;2023-02-15T10:20:13;51.53;;;21.20;;
4766;SDS011;2397;53.576;9.746;2023-02-15T10:25:40;37.77;;;18.90;;
4766;SDS011;2397;53.576;9.746;2023-02-15T10:28:19;33.37;;;18.87;;
4766;SDS011;2397;53.576;9.746;2023-02-15T10:36:46;37.47;;;18.90;;
4766;SDS011;2397;53.576;9.746;2023-02-15T10:39:28;37.53;;;19.10;;
4766;SDS011;2397;53.576;9.746;2023-02-15T10:45:23;29.67;;;17.70;;
4766;SDS011;2397;53.576;9.746;2023-02-15T10:48:05;31.70;;;19.90;;
4766;SDS011;2397;53.576;9.746;2023-02-15T10:50:51;37.83;;;19.47;;
4766;SDS011;2397;53.576;9.746;2023-02-15T10:56:08;35.13;;;18.43;;
4766;SDS011;2397;53.576;9.746;2023-02-15T11:01:54;30.43;;;19.70;;
4766;SDS011;2397;53.576;9.746;2023-02-15T11:04:29;72.80;;;20.73;;
4766;SDS011;2397;53.576;9.746;2023-02-15T11:06:59;36.50;;;19.13;;
4766;SDS011;2397;53.576;9.746;2023-02-15T11:09:47;33.67;;;20.10;;
4766;SDS011;2397;53.576;9.746;2023-02-15T11:12:19;28.80;;;18.50;;
4766;SDS011;2397;53.576;9.746;2023-02-15T11:14:50;32.10;;;20.63;;
4766;SDS011;2397;53.576;9.746;2023-02-15T11:17:25;35.63;;;19.67;;
4766;SDS011;2397;53.576;9.746;2023-02-15T11:20:04;35.10;;;21.03;;
4766;SDS011;2397;53.576;9.746;2023-02-15T11:22:41;30.47;;;20.77;;
4766;SDS011;2397;53.576;9.746;2023-02-15T11:25:28;34.60;;;20.87;;
4766;SDS011;2397;53.576;9.746;2023-02-15T11:27:57;43.60;;;21.90;;
4766;SDS011;2397;53.576;9.746;2023-02-15T11:30:28;32.53;;;22.00;;
4766;SDS011;2397;53.576;9.746;2023-02-15T11:33:12;35.67;;;22.40;;
4766;SDS011;2397;53.576;9.746;2023-02-15T11:35:48;42.43;;;23.80;;
4766;SDS011;2397;53.576;9.746;2023-02-15T11:38:23;34.37;;;20.60;;
4766;SDS011;2397;53.576;9.746;2023-02-15T11:40:55;39.60;;;23.83;;
4766;SDS011;2397;53.576;9.746;2023-02-15T11:43:37;36.37;;;22.33;;
4766;SDS011;2397;53.576;9.746;2023-02-15T11:46:10;40.90;;;24.23;;
4766;SDS011;2397;53.576;9.746;2023-02-15T11:48:38;41.17;;;23.03;;
4766;SDS011;2397;53.576;9.746;2023-02-15T11:51:05;42.30;;;23.90;;
4766;SDS011;2397;53.576;9.746;2023-02-15T11:53:32;38.47;;;23.17;;
4766;SDS011;2397;53.576;9.746;2023-02-15T11:56:02;40.57;;;24.30;;
4766;SDS011;2397;53.576;9.746;2023-02-15T11:58:33;39.30;;;23.30;;
4766;SDS011;2397;53.576;9.746;2023-02-15T12:04:01;41.30;;;24.30;;
4766;SDS011;2397;53.576;9.746;2023-02-15T12:06:30;55.93;;;25.97;;
4766;SDS011;2397;53.576;9.746;2023-02-15T12:09:05;41.73;;;24.20;;
4766;SDS011;2397;53.576;9.746;2023-02-15T12:11:42;46.10;;;26.40;;
4766;SDS011;2397;53.576;9.746;2023-02-15T12:14:09;44.10;;;27.23;;
4766;SDS011;2397;53.576;9.746;2023-02-15T12:16:47;42.60;;;26.07;;
4766;SDS011;2397;53.576;9.746;2023-02-15T12:19:31;41.63;;;25.20;;
4766;SDS011;2397;53.576;9.746;2023-02-15T12:22:03;45.77;;;27.67;;
4766;SDS011;2397;53.576;9.746;2023-02-15T12:24:35;45.20;;;26.87;;
4766;SDS011;2397;53.576;9.746;2023-02-15T12:30:06;41.90;;;27.60;;
4766;SDS011;2397;53.576;9.746;2023-02-15T12:32:56;50.33;;;28.37;;
4766;SDS011;2397;53.576;9.746;2023-02-15T12:35:28;43.30;;;28.20;;
4766;SDS011;2397;53.576;9.746;2023-02-15T12:38:01;38.53;;;26.57;;
4766;SDS011;2397;53.576;9.746;2023-02-15T12:40:31;39.57;;;26.53;;
4766;SDS011;2397;53.576;9.746;2023-02-15T12:42:59;40.30;;;27.60;;
4766;SDS011;2397;53.576;9.746;2023-02-15T12:45:32;43.17;;;26.80;;
4766;SDS011;2397;53.576;9.746;2023-02-15T12:50:39;43.10;;;27.13;;
4766;SDS011;2397;53.576;9.746;2023-02-15T12:55:36;42.00;;;25.57;;
4766;SDS011;2397;53.576;9.746;2023-02-15T12:58:16;37.73;;;26.10;;
4766;SDS011;2397;53.576;9.746;2023-02-15T13:00:45;35.73;;;26.10;;
4766;SDS011;2397;53.576;9.746;2023-02-15T13:03:19;37.27;;;25.43;;
4766;SDS011;2397;53.576;9.746;2023-02-15T13:05:53;35.17;;;24.00;;
4766;SDS011;2397;53.576;9.746;2023-02-15T13:08:26;36.93;;;24.10;;
4766;SDS011;2397;53.576;9.746;2023-02-15T13:10:56;34.53;;;24.00;;
4766;SDS011;2397;53.576;9.746;2023-02-15T13:14:02;34.97;;;23.93;;
4766;SDS011;2397;53.576;9.746;2023-02-15T13:16:40;31.40;;;23.83;;
4766;SDS011;2397;53.576;9.746;2023-02-15T13:19:10;31.83;;;24.20;;
4766;SDS011;2397;53.576;9.746;2023-02-15T13:21:41;37.63;;;26.20;;
4766;SDS011;2397;53.576;9.746;2023-02-15T13:26:52;33.37;;;22.07;;
4766;SDS011;2397;53.576;9.746;2023-02-15T13:29:39;34.17;;;25.50;;
4766;SDS011;2397;53.576;9.746;2023-02-15T13:32:12;31.60;;;23.47;;
4766;SDS011;2397;53.576;9.746;2023-02-15T13:34:58;32.43;;;22.80;;
4766;SDS011;2397;53.576;9.746;2023-02-15T13:40:53;28.80;;;22.60;;
4766;SDS011;2397;53.576;9.746;2023-02-15T13:43:37;32.30;;;24.77;;
4766;SDS011;2397;53.576;9.746;2023-02-15T13:46:14;30.30;;;23.50;;
4766;SDS011;2397;53.576;9.746;2023-02-15T13:48:46;37.57;;;24.70;;
4766;SDS011;2397;53.576;9.746;2023-02-15T13:51:31;27.47;;;22.90;;
4766;SDS011;2397;53.576;9.746;2023-02-15T14:05:15;31.90;;;22.27;;
4766;SDS011;2397;53.576;9.746;2023-02-15T14:08:09;32.53;;;23.80;;
4766;SDS011;2397;53.576;9.746;2023-02-15T14:21:36;29.07;;;22.03;;
4766;SDS011;2397;53.576;9.746;2023-02-15T14:26:52;34.40;;;23.70;;
4766;SDS011;2397;53.576;9.746;2023-02-15T14:32:10;30.73;;;22.67;;
4766;SDS011;2397;53.576;9.746;2023-02-15T14:34:51;31.27;;;23.77;;
4766;SDS011;2397;53.576;9.746;2023-02-15T14:37:23;36.77;;;23.47;;
4766;SDS011;2397;53.576;9.746;2023-02-15T14:40:25;31.53;;;24.33;;
4766;SDS011;2397;53.576;9.746;2023-02-15T14:43:47;31.57;;;23.67;;
4766;SDS011;2397;53.576;9.746;2023-02-15T14:49:30;32.37;;;23.63;;
4766;SDS011;2397;53.576;9.746;2023-02-15T14:52:00;35.30;;;26.00;;
4766;SDS011;2397;53.576;9.746;2023-02-15T15:07:25;29.73;;;22.27;;
4766;SDS011;2397;53.576;9.746;2023-02-15T15:09:58;31.70;;;23.67;;
4766;SDS011;2397;53.576;9.746;2023-02-15T15:14:52;32.63;;;24.40;;
4766;SDS011;2397;53.576;9.746;2023-02-15T15:20:05;32.80;;;24.60;;
4766;SDS011;2397;53.576;9.746;2023-02-15T15:22:35;35.77;;;24.93;;
4766;SDS011;2397;53.576;9.746;2023-02-15T15:41:18;31.50;;;23.60;;
4766;SDS011;2397;53.576;9.746;2023-02-15T15:47:05;37.03;;;25.23;;
4766;SDS011;2397;53.576;9.746;2023-02-15T15:49:43;32.17;;;23.33;;
4766;SDS011;2397;53.576;9.746;2023-02-15T15:52:17;34.10;;;24.40;;
4766;SDS011;2397;53.576;9.746;2023-02-15T15:54:46;34.47;;;24.10;;
4766;SDS011;2397;53.576;9.746;2023-02-15T15:57:25;34.63;;;23.87;;
4766;SDS011;2397;53.576;9.746;2023-02-15T16:00:01;39.37;;;25.43;;
4766;SDS011;2397;53.576;9.746;2023-02-15T16:02:28;37.07;;;24.93;;
4766;SDS011;2397;53.576;9.746;2023-02-15T16:05:05;29.90;;;22.57;;
4766;SDS011;2397;53.576;9.746;2023-02-15T16:07:32;36.07;;;23.33;;
4766;SDS011;2397;53.576;9.746;2023-02-15T16:09:59;35.00;;;24.17;;
4766;SDS011;2397;53.576;9.746;2023-02-15T16:12:45;32.10;;;23.27;;
4766;SDS011;2397;53.576;9.746;2023-02-15T16:15:16;38.60;;;24.13;;
4766;SDS011;2397;53.576;9.746;2023-02-15T16:17:50;34.30;;;24.50;;
4766;SDS011;2397;53.576;9.746;2023-02-15T16:20:23;40.87;;;23.17;;
4766;SDS011;2397;53.576;9.746;2023-02-15T16:23:01;30.90;;;22.30;;
4766;SDS011;2397;53.576;9.746;2023-02-15T16:28:12;29.70;;;20.97;;
4766;SDS011;2397;53.576;9.746;2023-02-15T16:30:39;29.70;;;21.37;;
4766;SDS011;2397;53.576;9.746;2023-02-15T16:33:12;32.47;;;22.30;;
4766;SDS011;2397;53.576;9.746;2023-02-15T16:41:12;31.10;;;21.40;;
4766;SDS011;2397;53.576;9.746;2023-02-15T16:43:42;33.50;;;19.77;;
4766;SDS011;2397;53.576;9.746;2023-02-15T16:46:12;26.73;;;19.33;;
4766;SDS011;2397;53.576;9.746;2023-02-15T16:48:46;31.10;;;21.27;;
4766;SDS011;2397;53.576;9.746;2023-02-15T16:51:20;28.30;;;18.73;;
4766;SDS011;2397;53.576;9.746;2023-02-15T16:53:52;32.60;;;20.00;;
4766;SDS011;2397;53.576;9.746;2023-02-15T16:56:24;26.67;;;19.40;;
4766;SDS011;2397;53.576;9.746;2023-02-15T16:58:53;33.20;;;19.13;;
4766;SDS011;2397;53.576;9.746;2023-02-15T17:01:22;31.77;;;19.87;;
4766;SDS011;2397;53.576;9.746;2023-02-15T17:03:51;32.17;;;21.23;;
4766;SDS011;2397;53.576;9.746;2023-02-15T17:06:36;35.97;;;20.07;;
4766;SDS011;2397;53.576;9.746;2023-02-15T17:09:04;31.50;;;21.83;;
4766;SDS011;2397;53.576;9.746;2023-02-15T17:11:44;27.73;;;19.00;;
4766;SDS011;2397;53.576;9.746;2023-02-15T17:14:11;28.83;;;20.70;;
4766;SDS011;2397;53.576;9.746;2023-02-15T17:16:49;29.50;;;21.00;;
4766;SDS011;2397;53.576;9.746;2023-02-15T17:19:17;30.43;;;20.07;;
4766;SDS011;2397;53.576;9.746;2023-02-15T17:22:02;32.07;;;20.27;;
4766;SDS011;2397;53.576;9.746;2023-02-15T17:24:37;30.73;;;21.10;;
4766;SDS011;2397;53.576;9.746;2023-02-15T17:27:27;32.57;;;21.33;;
4766;SDS011;2397;53.576;9.746;2023-02-15T17:29:58;28.83;;;19.13;;
4766;SDS011;2397;53.576;9.746;2023-02-15T17:32:29;30.30;;;19.77;;
4766;SDS011;2397;53.576;9.746;2023-02-15T17:37:46;38.07;;;20.50;;
4766;SDS011;2397;53.576;9.746;2023-02-15T17:40:26;27.37;;;19.07;;
4766;SDS011;2397;53.576;9.746;2023-02-15T17:42:54;32.17;;;19.93;;
4766;SDS011;2397;53.576;9.746;2023-02-15T17:45:21;28.40;;;19.40;;
4766;SDS011;2397;53.576;9.746;2023-02-15T17:47:50;30.33;;;20.03;;
4766;SDS011;2397;53.576;9.746;2023-02-15T17:50:18;28.77;;;20.23;;
4766;SDS011;2397;53.576;9.746;2023-02-15T17:52:47;32.03;;;20.67;;
4766;SDS011;2397;53.576;9.746;2023-02-15T17:55:15;38.13;;;22.63;;
4766;SDS011;2397;53.576;9.746;2023-02-15T17:58:03;28.07;;;19.83;;